• Join FlightAware (Why Join?)
  • Login
  • US Flag 
04:41AM EDT


 

Airport Tracker/Info


-or-


 

Live Flight TrackerFlight Track Log ✈ AAL2360 ✈ 13-Jun-2013 ✈ KDFW - KORD

Flight Track Log - Related Links

Times and Time Zones

All times are in EDT time to prevent confusion due to time zone crossing. See the AAL2360 flight status page for this flight to view local times or setup timezone preferences in your user account.

Time Position Orientation Groundspeed Altitude Reporting Facility
EDT Latitude Longitude Course Direction KTS MPH feet Rate Location/Type
03:34PM 32.8833 -97.0500 331° Northwest 178 205 1,100  Level Dallas / Fort Worth TRACON
03:36PM 32.8000 -97.0667 190° South 238 274 4,000 2,100 Climbing Dallas / Fort Worth TRACON
03:37PM 32.8460 -96.8008 10° North  Level FlightAware Approximate
03:37PM 32.7667 -97.1500 245° Southwest 268 308 6,600  Level Dallas / Fort Worth TRACON
03:38PM 32.9629 -96.8000 North  Level FlightAware Approximate
03:38PM 32.7833 -97.2333 283° West 304 350 8,800  Level Dallas / Fort Worth TRACON
03:38PM 32.8228 -97.2603 330° Northwest 305 351 10,700 1,740 Climbing Fort Worth Center
03:39PM 33.0695 -96.8519 331° Northwest  Level FlightAware Approximate
03:39PM 32.9208 -97.2450 North 304 350 12,000  Level Fort Worth Center
03:40PM 33.0106 -97.2203 13° North 357 411 14,100 2,160 Climbing Fort Worth Center
03:41PM 33.1275 -97.1903 12° North 381 438 16,400 2,100 Climbing Fort Worth Center
03:42PM 33.2278 -97.1650 12° North 397 457 18,300 1,980 Climbing Fort Worth Center
03:43PM 33.3508 -97.1350 12° North 406 467 20,400 1,800 Climbing Fort Worth Center
03:44PM 33.4550 -97.1122 10° North 413 475 22,000 1,680 Climbing Fort Worth Center
03:45PM 33.5864 -97.0944 North 423 487 23,800 1,560 Climbing Fort Worth Center
03:46PM 33.6908 -97.0614 15° North 430 495 25,200 1,440 Climbing Fort Worth Center
03:47PM 33.8158 -96.9958 24° Northeast 439 505 26,700 1,200 Climbing Fort Worth Center
03:48PM 33.9303 -96.9403 22° Northeast 434 499 27,700 1,260 Climbing Fort Worth Center
03:49PM 34.0492 -96.8794 23° Northeast 444 511 29,300 1,440 Climbing Fort Worth Center
03:50PM 34.1656 -96.8186 23° Northeast 444 511 30,600 1,200 Climbing Fort Worth Center
03:51PM 34.2803 -96.7650 21° North 449 517 31,700 960 Climbing Fort Worth Center
03:52PM 34.3967 -96.7064 23° Northeast 449 517 32,600 600 Climbing Fort Worth Center
03:53PM 34.5133 -96.6472 23° Northeast 449 517 33,000 180 Climbing Fort Worth Center
03:54PM 34.6339 -96.5883 22° Northeast 449 517 33,000  Level Fort Worth Center
03:55PM 34.7503 -96.5289 23° Northeast 449 517 33,000  Level Fort Worth Center
03:56PM 34.8667 -96.4697 23° Northeast 449 517 33,000  Level Fort Worth Center
03:57PM 34.9850 -96.4075 23° Northeast 454 522 33,000  Level Fort Worth Center
03:58PM 35.1036 -96.3503 22° Northeast 454 522 33,000  Level Fort Worth Center
03:59PM 35.2197 -96.2903 23° Northeast 454 522 33,000  Level Fort Worth Center
04:00PM 35.3381 -96.2303 22° Northeast 454 522 33,000  Level Fort Worth Center
04:02PM 35.4722 -96.1606 23° Northeast 459 528 33,000  Level Kansas City Center
04:03PM 35.5886 -96.1000 23° Northeast 458 527 33,000  Level Kansas City Center
04:04PM 35.7050 -96.0342 25° Northeast 460 529 33,000  Level Kansas City Center
04:05PM 35.8353 -95.9381 31° Northeast 456 525 33,000  Level Kansas City Center
04:06PM 35.9447 -95.8589 30° Northeast 455 524 33,000  Level Kansas City Center
04:07PM 36.0542 -95.7811 30° Northeast 454 522 33,000  Level Kansas City Center
04:08PM 36.1600 -95.7028 31° Northeast 457 526 33,000  Level Kansas City Center
04:09PM 36.2689 -95.6236 30° Northeast 456 525 33,000  Level Kansas City Center
04:10PM 36.3781 -95.5428 31° Northeast 457 526 33,000  Level Kansas City Center
04:11PM 36.5081 -95.4439 31° Northeast 458 527 33,000  Level Kansas City Center
04:12PM 36.6131 -95.3708 29° Northeast 457 526 33,000  Level Kansas City Center
04:13PM 36.7214 -95.2881 31° Northeast 455 524 33,000  Level Kansas City Center
04:14PM 36.8289 -95.2075 31° Northeast 451 519 33,000  Level Kansas City Center
04:15PM 36.9586 -95.1097 31° Northeast 452 520 33,000  Level Kansas City Center
04:16PM 37.0672 -95.0283 31° Northeast 454 522 33,000  Level Kansas City Center
04:17PM 37.1764 -94.9475 31° Northeast 453 521 33,000  Level Kansas City Center
04:18PM 37.2853 -94.8639 31° Northeast 457 526 33,000  Level Kansas City Center
04:19PM 37.3931 -94.7833 31° Northeast 452 520 33,000  Level Kansas City Center
04:20PM 37.5017 -94.6994 31° Northeast 455 524 33,000  Level Kansas City Center
04:21PM 37.6294 -94.5994 32° Northeast 451 519 33,000  Level Kansas City Center
04:22PM 37.7233 -94.5283 31° Northeast 449 517 33,000  Level Kansas City Center
04:23PM 37.8458 -94.4331 32° Northeast 449 517 33,000  Level Kansas City Center
04:24PM 37.9422 -94.3589 31° Northeast 443 510 33,000  Level Kansas City Center
04:25PM 38.0611 -94.2672 31° Northeast 446 513 33,000  Level Kansas City Center
04:26PM 38.1628 -94.1864 32° Northeast 449 517 33,000  Level Kansas City Center
04:27PM 38.2828 -94.0922 32° Northeast 451 519 33,000  Level Kansas City Center
04:28PM 38.3783 -94.0181 31° Northeast 447 514 33,000  Level Kansas City Center
04:29PM 38.5017 -93.9197 32° Northeast 449 517 33,000  Level Kansas City Center
04:31PM 38.6047 -93.8386 32° Northeast 454 522 33,000  Level Kansas City Center
04:32PM 38.7219 -93.7458 32° Northeast 450 518 33,000  Level Kansas City Center
04:33PM 38.8275 -93.6611 32° Northeast 447 514 33,000  Level Kansas City Center
04:34PM 38.9325 -93.5778 32° Northeast 444 511 33,000  Level Kansas City Center
04:35PM 39.0397 -93.4908 32° Northeast 443 510 33,000  Level Kansas City Center
04:36PM 39.1561 -93.3983 32° Northeast 440 506 33,000  Level Kansas City Center
04:37PM 39.2453 -93.2867 44° Northeast 458 527 33,000  Level Kansas City Center
04:38PM 39.3283 -93.1633 49° Northeast 461 531 33,000  Level Kansas City Center
04:39PM 39.4158 -93.0428 47° Northeast 463 533 33,000  Level Kansas City Center
04:40PM 39.5011 -92.9178 48° Northeast 466 536 33,000  Level Kansas City Center
04:41PM 39.6033 -92.7739 47° Northeast 461 531 33,000  Level Kansas City Center
04:42PM 39.6881 -92.6553 47° Northeast 456 525 33,000  Level Kansas City Center
04:43PM 39.7725 -92.5358 47° Northeast 455 524 33,000  Level Kansas City Center
04:44PM 39.8564 -92.4161 48° Northeast 454 522 33,000  Level Kansas City Center
04:45PM 39.9569 -92.2747 47° Northeast 452 520 33,000  Level Kansas City Center
04:46PM 40.0381 -92.1564 48° Northeast 449 517 33,000  Level Kansas City Center
04:47PM 40.1192 -92.0392 48° Northeast 444 511 33,000  Level Kansas City Center
04:48PM 40.1986 -91.9217 48° Northeast 440 506 33,000  Level Kansas City Center
04:49PM 40.2969 -91.7806 48° Northeast 442 509 33,000  Level Kansas City Center
04:50PM 40.3783 -91.6608 48° Northeast 444 511 33,000  Level Kansas City Center
04:51PM 40.4600 -91.5414 48° Northeast 444 511 33,000  Level Kansas City Center
04:52PM 40.5400 -91.4214 49° Northeast 443 510 33,000  Level Kansas City Center
04:53PM 40.5992 -91.2681 63° Northeast 460 529 33,000  Level Kansas City Center
04:54PM 40.6628 -91.0831 66° East 465 535 33,000 -60 Level Chicago Center
04:55PM 40.7164 -90.9281 65° Northeast 465 535 32,900 -540 Descending Chicago Center
04:56PM 40.7689 -90.7700 66° East 469 540 31,900 -1,020 Descending Chicago Center
04:57PM 40.8228 -90.6142 65° Northeast 466 536 30,900 -1,020 Descending Chicago Center
04:58PM 40.8736 -90.4597 66° East 458 527 29,900 -960 Descending Chicago Center
05:00PM 40.9253 -90.3042 66° East 460 529 28,900 -1,380 Descending Chicago Center
05:01PM 40.9875 -90.1208 66° East 446 513 27,100 -1,620 Descending Chicago Center
05:02PM 41.0344 -89.9758 67° East 435 501 25,600 -1,320 Descending Chicago Center
05:03PM 41.0839 -89.8250 66° East 438 504 24,400 -780 Descending Chicago Center
05:04PM 41.1336 -89.6744 66° East 442 509 24,000 -1,200 Descending Chicago Center
05:05PM 41.1864 -89.5244 65° Northeast 445 512 22,000 -2,040 Descending Chicago Center
05:06PM 41.2431 -89.3861 61° Northeast 428 493 19,900 -2,160 Descending Chicago Center
05:07PM 41.2964 -89.2531 62° Northeast 412 474 17,600 -2,220 Descending Chicago Center
05:08PM 41.3525 -89.1086 63° Northeast 385 443 15,400 -1,920 Descending Chicago Center
05:09PM 41.4019 -88.9861 62° Northeast 377 434 13,700 -1,620 Descending Chicago Center
05:10PM 41.4481 -88.8675 63° Northeast 363 418 12,100 -1,260 Descending Chicago Center
05:11PM 41.4942 -88.7531 62° Northeast 355 409 11,100 -540 Descending Chicago Center
05:12PM 41.5481 -88.6158 62° Northeast 350 403 11,000 -180 Descending Chicago Center
05:13PM 41.5836 -88.5167 64° Northeast 304 350 10,800 -780 Descending Chicago Center
05:14PM 41.6119 -88.4153 69° East 291 335 9,400 -1,320 Descending Chicago Center
05:15PM 41.6411 -88.3178 68° East 284 327 8,100 -720 Descending Chicago Center
05:16PM 41.6756 -88.2256 63° Northeast 283 326 8,000 -300 Descending Chicago Center
05:17PM 41.7297 -88.1619 41° Northeast 261 300 7,600 -1,140 Descending Chicago Center
05:18PM 41.7858 -88.0961 41° Northeast 225 259 5,700 -1,440 Descending Chicago Center
05:19PM 41.8294 -88.0436 42° Northeast 219 252 4,700 -960 Descending Chicago Center